sensor_id;sensor_type;location;lat;lon;timestamp;temperature;humidity
17284;DHT22;8760;52.248;20.952;2022-08-03T00:01:03;17.50;99.90
17284;DHT22;8760;52.248;20.952;2022-08-03T00:03:30;17.50;99.90
17284;DHT22;8760;52.248;20.952;2022-08-03T00:05:57;17.50;99.90
17284;DHT22;8760;52.248;20.952;2022-08-03T00:08:25;17.50;99.90
17284;DHT22;8760;52.248;20.952;2022-08-03T00:10:52;17.40;99.90
17284;DHT22;8760;52.248;20.952;2022-08-03T00:13:18;17.50;99.90
17284;DHT22;8760;52.248;20.952;2022-08-03T00:15:45;17.40;99.90
17284;DHT22;8760;52.248;20.952;2022-08-03T00:18:12;17.40;99.90
17284;DHT22;8760;52.248;20.952;2022-08-03T00:20:38;17.40;99.90
17284;DHT22;8760;52.248;20.952;2022-08-03T00:23:05;17.40;99.90
17284;DHT22;8760;52.248;20.952;2022-08-03T00:25:34;17.30;99.90
17284;DHT22;8760;52.248;20.952;2022-08-03T00:28:01;17.30;99.90
17284;DHT22;8760;52.248;20.952;2022-08-03T00:30:28;17.30;99.90
17284;DHT22;8760;52.248;20.952;2022-08-03T00:32:55;17.30;99.90
17284;DHT22;8760;52.248;20.952;2022-08-03T00:35:22;17.20;99.90
17284;DHT22;8760;52.248;20.952;2022-08-03T00:37:49;17.30;99.90
17284;DHT22;8760;52.248;20.952;2022-08-03T00:40:17;17.30;99.90
17284;DHT22;8760;52.248;20.952;2022-08-03T00:42:50;17.20;99.90
17284;DHT22;8760;52.248;20.952;2022-08-03T00:45:19;17.20;99.90
17284;DHT22;8760;52.248;20.952;2022-08-03T00:47:46;17.20;99.90
17284;DHT22;8760;52.248;20.952;2022-08-03T00:50:14;17.20;99.90
17284;DHT22;8760;52.248;20.952;2022-08-03T00:52:40;17.20;99.90
17284;DHT22;8760;52.248;20.952;2022-08-03T00:55:08;17.20;99.90
17284;DHT22;8760;52.248;20.952;2022-08-03T00:57:35;17.10;99.90
17284;DHT22;8760;52.248;20.952;2022-08-03T01:00:05;17.10;99.90
17284;DHT22;8760;52.248;20.952;2022-08-03T01:02:32;17.00;99.90
17284;DHT22;8760;52.248;20.952;2022-08-03T01:04:59;17.00;99.90
17284;DHT22;8760;52.248;20.952;2022-08-03T01:07:35;17.00;99.90
17284;DHT22;8760;52.248;20.952;2022-08-03T01:10:16;17.00;99.90
17284;DHT22;8760;52.248;20.952;2022-08-03T01:12:54;17.00;99.90
17284;DHT22;8760;52.248;20.952;2022-08-03T01:15:41;17.00;99.90
17284;DHT22;8760;52.248;20.952;2022-08-03T01:18:13;17.00;99.90
17284;DHT22;8760;52.248;20.952;2022-08-03T01:20:44;16.90;99.90
17284;DHT22;8760;52.248;20.952;2022-08-03T01:23:31;16.90;99.90
17284;DHT22;8760;52.248;20.952;2022-08-03T01:26:27;16.90;99.90
17284;DHT22;8760;52.248;20.952;2022-08-03T01:29:03;16.90;99.90
17284;DHT22;8760;52.248;20.952;2022-08-03T01:31:39;16.90;99.90
17284;DHT22;8760;52.248;20.952;2022-08-03T01:34:09;16.90;99.90
17284;DHT22;8760;52.248;20.952;2022-08-03T01:36:39;16.80;99.90
17284;DHT22;8760;52.248;20.952;2022-08-03T01:39:09;16.80;99.90
17284;DHT22;8760;52.248;20.952;2022-08-03T01:41:41;16.80;99.90
17284;DHT22;8760;52.248;20.952;2022-08-03T01:44:10;16.70;99.90
17284;DHT22;8760;52.248;20.952;2022-08-03T01:46:40;16.80;99.90
17284;DHT22;8760;52.248;20.952;2022-08-03T01:49:09;16.80;99.90
17284;DHT22;8760;52.248;20.952;2022-08-03T01:51:37;16.80;99.90
17284;DHT22;8760;52.248;20.952;2022-08-03T01:54:05;16.70;99.90
17284;DHT22;8760;52.248;20.952;2022-08-03T01:56:34;16.60;99.90
17284;DHT22;8760;52.248;20.952;2022-08-03T01:59:02;16.70;99.90
17284;DHT22;8760;52.248;20.952;2022-08-03T02:01:30;16.70;99.90
17284;DHT22;8760;52.248;20.952;2022-08-03T02:03:59;16.70;99.90
17284;DHT22;8760;52.248;20.952;2022-08-03T02:06:28;16.70;99.90
17284;DHT22;8760;52.248;20.952;2022-08-03T02:08:56;16.60;99.90
17284;DHT22;8760;52.248;20.952;2022-08-03T02:11:25;16.70;99.90
17284;DHT22;8760;52.248;20.952;2022-08-03T02:13:52;16.70;99.90
17284;DHT22;8760;52.248;20.952;2022-08-03T02:16:21;16.70;99.90
17284;DHT22;8760;52.248;20.952;2022-08-03T02:18:50;16.60;99.90
17284;DHT22;8760;52.248;20.952;2022-08-03T02:21:20;16.60;99.90
17284;DHT22;8760;52.248;20.952;2022-08-03T02:23:47;16.60;99.90
17284;DHT22;8760;52.248;20.952;2022-08-03T02:26:16;16.60;99.90
17284;DHT22;8760;52.248;20.952;2022-08-03T02:28:47;16.70;99.90
17284;DHT22;8760;52.248;20.952;2022-08-03T02:31:21;16.60;99.90
17284;DHT22;8760;52.248;20.952;2022-08-03T02:33:52;16.60;99.90
17284;DHT22;8760;52.248;20.952;2022-08-03T02:36:23;16.50;99.90
17284;DHT22;8760;52.248;20.952;2022-08-03T02:38:53;16.50;99.90
17284;DHT22;8760;52.248;20.952;2022-08-03T02:41:24;16.60;99.90
17284;DHT22;8760;52.248;20.952;2022-08-03T02:43:54;16.50;99.90
17284;DHT22;8760;52.248;20.952;2022-08-03T02:46:26;16.50;99.90
17284;DHT22;8760;52.248;20.952;2022-08-03T02:48:55;16.50;99.90
17284;DHT22;8760;52.248;20.952;2022-08-03T02:51:24;16.50;99.90
17284;DHT22;8760;52.248;20.952;2022-08-03T02:53:54;16.50;99.90
17284;DHT22;8760;52.248;20.952;2022-08-03T02:56:22;16.50;99.90
17284;DHT22;8760;52.248;20.952;2022-08-03T02:58:49;16.50;99.90
17284;DHT22;8760;52.248;20.952;2022-08-03T03:01:18;16.50;99.90
17284;DHT22;8760;52.248;20.952;2022-08-03T03:03:45;16.50;99.90
17284;DHT22;8760;52.248;20.952;2022-08-03T03:06:14;16.50;99.90
17284;DHT22;8760;52.248;20.952;2022-08-03T03:08:44;16.60;99.90
17284;DHT22;8760;52.248;20.952;2022-08-03T03:11:12;16.60;99.90
17284;DHT22;8760;52.248;20.952;2022-08-03T03:13:41;16.60;99.90
17284;DHT22;8760;52.248;20.952;2022-08-03T03:16:10;16.60;99.90
17284;DHT22;8760;52.248;20.952;2022-08-03T03:18:38;16.60;99.90
17284;DHT22;8760;52.248;20.952;2022-08-03T03:21:07;16.70;99.90
17284;DHT22;8760;52.248;20.952;2022-08-03T03:23:36;16.70;99.90
17284;DHT22;8760;52.248;20.952;2022-08-03T03:26:05;16.70;99.90
17284;DHT22;8760;52.248;20.952;2022-08-03T03:28:32;16.80;99.90
17284;DHT22;8760;52.248;20.952;2022-08-03T03:31:02;16.80;99.90
17284;DHT22;8760;52.248;20.952;2022-08-03T03:33:29;16.80;99.90
17284;DHT22;8760;52.248;20.952;2022-08-03T03:35:56;16.90;99.90
17284;DHT22;8760;52.248;20.952;2022-08-03T03:38:24;16.90;99.90
17284;DHT22;8760;52.248;20.952;2022-08-03T03:40:50;16.90;99.90
17284;DHT22;8760;52.248;20.952;2022-08-03T03:43:19;17.00;99.90
17284;DHT22;8760;52.248;20.952;2022-08-03T03:45:46;17.00;99.90
17284;DHT22;8760;52.248;20.952;2022-08-03T03:48:14;17.00;99.90
17284;DHT22;8760;52.248;20.952;2022-08-03T03:50:40;17.10;99.90
17284;DHT22;8760;52.248;20.952;2022-08-03T03:53:10;17.10;99.90
17284;DHT22;8760;52.248;20.952;2022-08-03T03:55:37;17.10;99.90
17284;DHT22;8760;52.248;20.952;2022-08-03T03:58:05;17.20;99.90
17284;DHT22;8760;52.248;20.952;2022-08-03T04:00:33;17.20;99.90
17284;DHT22;8760;52.248;20.952;2022-08-03T04:03:00;17.30;99.90
17284;DHT22;8760;52.248;20.952;2022-08-03T04:05:27;17.40;99.90
17284;DHT22;8760;52.248;20.952;2022-08-03T04:08:14;17.40;99.90
17284;DHT22;8760;52.248;20.952;2022-08-03T04:11:07;17.50;99.90
17284;DHT22;8760;52.248;20.952;2022-08-03T04:13:37;17.60;99.90
17284;DHT22;8760;52.248;20.952;2022-08-03T04:16:09;17.60;99.90
17284;DHT22;8760;52.248;20.952;2022-08-03T04:18:38;17.70;99.90
17284;DHT22;8760;52.248;20.952;2022-08-03T04:21:09;17.80;99.90
17284;DHT22;8760;52.248;20.952;2022-08-03T04:23:40;17.80;99.90
17284;DHT22;8760;52.248;20.952;2022-08-03T04:26:11;17.90;99.90
17284;DHT22;8760;52.248;20.952;2022-08-03T04:28:40;18.00;99.90
17284;DHT22;8760;52.248;20.952;2022-08-03T04:31:11;18.10;99.90
17284;DHT22;8760;52.248;20.952;2022-08-03T04:33:40;18.10;99.90
17284;DHT22;8760;52.248;20.952;2022-08-03T04:36:11;18.30;99.90
17284;DHT22;8760;52.248;20.952;2022-08-03T04:38:47;18.40;99.90
17284;DHT22;8760;52.248;20.952;2022-08-03T04:41:19;18.50;99.90
17284;DHT22;8760;52.248;20.952;2022-08-03T04:43:46;18.60;99.90
17284;DHT22;8760;52.248;20.952;2022-08-03T04:46:16;18.80;99.90
17284;DHT22;8760;52.248;20.952;2022-08-03T04:48:44;18.90;99.90
17284;DHT22;8760;52.248;20.952;2022-08-03T04:51:12;19.00;99.90
17284;DHT22;8760;52.248;20.952;2022-08-03T04:53:39;19.00;99.90
17284;DHT22;8760;52.248;20.952;2022-08-03T04:56:07;19.10;99.90
17284;DHT22;8760;52.248;20.952;2022-08-03T04:58:34;19.10;99.90
17284;DHT22;8760;52.248;20.952;2022-08-03T05:01:00;19.00;99.90
17284;DHT22;8760;52.248;20.952;2022-08-03T05:03:28;19.10;99.90
17284;DHT22;8760;52.248;20.952;2022-08-03T05:05:57;19.10;99.90
17284;DHT22;8760;52.248;20.952;2022-08-03T05:08:23;19.00;99.90
17284;DHT22;8760;52.248;20.952;2022-08-03T05:10:50;19.10;99.90
17284;DHT22;8760;52.248;20.952;2022-08-03T05:13:17;19.10;99.90
17284;DHT22;8760;52.248;20.952;2022-08-03T05:15:43;19.10;99.90
17284;DHT22;8760;52.248;20.952;2022-08-03T05:18:10;19.10;99.90
17284;DHT22;8760;52.248;20.952;2022-08-03T05:20:38;19.20;99.90
17284;DHT22;8760;52.248;20.952;2022-08-03T05:23:05;19.20;99.90
17284;DHT22;8760;52.248;20.952;2022-08-03T05:25:32;19.30;99.90
17284;DHT22;8760;52.248;20.952;2022-08-03T05:27:59;19.30;99.90
17284;DHT22;8760;52.248;20.952;2022-08-03T05:30:26;19.40;99.90
17284;DHT22;8760;52.248;20.952;2022-08-03T05:32:53;19.50;99.90
17284;DHT22;8760;52.248;20.952;2022-08-03T05:35:20;19.60;99.90
17284;DHT22;8760;52.248;20.952;2022-08-03T05:37:48;19.90;99.90
17284;DHT22;8760;52.248;20.952;2022-08-03T05:40:14;20.10;99.90
17284;DHT22;8760;52.248;20.952;2022-08-03T05:42:41;20.20;99.90
17284;DHT22;8760;52.248;20.952;2022-08-03T05:45:09;20.30;99.90
17284;DHT22;8760;52.248;20.952;2022-08-03T05:47:41;20.40;99.90
17284;DHT22;8760;52.248;20.952;2022-08-03T05:50:09;20.40;99.90
17284;DHT22;8760;52.248;20.952;2022-08-03T05:52:36;20.40;99.90
17284;DHT22;8760;52.248;20.952;2022-08-03T05:55:05;20.40;99.90
17284;DHT22;8760;52.248;20.952;2022-08-03T05:57:33;20.40;99.90
17284;DHT22;8760;52.248;20.952;2022-08-03T06:00:01;20.30;99.90
17284;DHT22;8760;52.248;20.952;2022-08-03T06:02:29;20.30;99.90
17284;DHT22;8760;52.248;20.952;2022-08-03T06:04:56;20.30;99.90
17284;DHT22;8760;52.248;20.952;2022-08-03T06:07:23;20.20;99.90
17284;DHT22;8760;52.248;20.952;2022-08-03T06:09:50;20.20;99.90
17284;DHT22;8760;52.248;20.952;2022-08-03T06:12:18;20.20;99.90
17284;DHT22;8760;52.248;20.952;2022-08-03T06:14:45;20.30;99.90
17284;DHT22;8760;52.248;20.952;2022-08-03T06:17:12;20.30;99.90
17284;DHT22;8760;52.248;20.952;2022-08-03T06:19:38;20.50;99.90
17284;DHT22;8760;52.248;20.952;2022-08-03T06:22:05;20.60;99.90
17284;DHT22;8760;52.248;20.952;2022-08-03T06:24:32;20.70;99.90
17284;DHT22;8760;52.248;20.952;2022-08-03T06:26:59;20.80;99.90
17284;DHT22;8760;52.248;20.952;2022-08-03T06:29:28;20.90;99.90
17284;DHT22;8760;52.248;20.952;2022-08-03T06:31:55;21.00;99.90
17284;DHT22;8760;52.248;20.952;2022-08-03T06:34:22;21.10;99.90
17284;DHT22;8760;52.248;20.952;2022-08-03T06:36:48;21.10;99.90
17284;DHT22;8760;52.248;20.952;2022-08-03T06:39:15;21.20;99.90
17284;DHT22;8760;52.248;20.952;2022-08-03T06:41:43;21.20;99.90
17284;DHT22;8760;52.248;20.952;2022-08-03T06:44:10;21.20;99.90
17284;DHT22;8760;52.248;20.952;2022-08-03T06:46:38;21.20;99.90
17284;DHT22;8760;52.248;20.952;2022-08-03T06:49:06;21.20;99.90
17284;DHT22;8760;52.248;20.952;2022-08-03T06:51:33;21.20;99.90
17284;DHT22;8760;52.248;20.952;2022-08-03T06:53:59;21.20;99.90
17284;DHT22;8760;52.248;20.952;2022-08-03T06:56:26;21.30;99.90
17284;DHT22;8760;52.248;20.952;2022-08-03T06:58:53;21.50;99.90
17284;DHT22;8760;52.248;20.952;2022-08-03T07:01:20;21.60;99.90
17284;DHT22;8760;52.248;20.952;2022-08-03T07:03:48;21.90;99.90
17284;DHT22;8760;52.248;20.952;2022-08-03T07:06:14;22.20;99.90
17284;DHT22;8760;52.248;20.952;2022-08-03T07:08:41;22.40;99.90
17284;DHT22;8760;52.248;20.952;2022-08-03T07:11:08;22.70;99.90
17284;DHT22;8760;52.248;20.952;2022-08-03T07:13:35;23.20;99.90
17284;DHT22;8760;52.248;20.952;2022-08-03T07:16:01;23.40;99.90
17284;DHT22;8760;52.248;20.952;2022-08-03T07:18:28;23.80;19.70
17284;DHT22;8760;52.248;20.952;2022-08-03T07:20:56;24.20;1.00
17284;DHT22;8760;52.248;20.952;2022-08-03T07:23:23;24.40;99.90
17284;DHT22;8760;52.248;20.952;2022-08-03T07:25:51;24.90;76.60
17284;DHT22;8760;52.248;20.952;2022-08-03T07:28:18;25.20;99.90
17284;DHT22;8760;52.248;20.952;2022-08-03T07:30:45;25.60;1.00
17284;DHT22;8760;52.248;20.952;2022-08-03T07:33:13;25.90;1.00
17284;DHT22;8760;52.248;20.952;2022-08-03T07:35:40;26.20;99.90
17284;DHT22;8760;52.248;20.952;2022-08-03T07:38:09;26.50;99.90
17284;DHT22;8760;52.248;20.952;2022-08-03T07:40:35;26.90;9.10
17284;DHT22;8760;52.248;20.952;2022-08-03T07:43:02;27.10;1.00
17284;DHT22;8760;52.248;20.952;2022-08-03T07:45:30;27.50;1.00
17284;DHT22;8760;52.248;20.952;2022-08-03T07:47:57;27.60;99.90
17284;DHT22;8760;52.248;20.952;2022-08-03T07:50:24;27.40;99.90
17284;DHT22;8760;52.248;20.952;2022-08-03T07:52:51;27.30;99.90
17284;DHT22;8760;52.248;20.952;2022-08-03T07:55:23;27.50;99.90
17284;DHT22;8760;52.248;20.952;2022-08-03T07:57:59;28.00;99.90
17284;DHT22;8760;52.248;20.952;2022-08-03T08:00:26;28.00;99.90
17284;DHT22;8760;52.248;20.952;2022-08-03T08:02:53;28.00;99.90
17284;DHT22;8760;52.248;20.952;2022-08-03T08:05:20;28.20;99.90
17284;DHT22;8760;52.248;20.952;2022-08-03T08:07:46;28.60;61.50
17284;DHT22;8760;52.248;20.952;2022-08-03T08:10:14;29.20;1.00
17284;DHT22;8760;52.248;20.952;2022-08-03T08:12:42;29.30;1.00
17284;DHT22;8760;52.248;20.952;2022-08-03T08:15:09;29.50;1.00
17284;DHT22;8760;52.248;20.952;2022-08-03T08:17:43;29.60;1.00
17284;DHT22;8760;52.248;20.952;2022-08-03T08:20:10;30.00;1.00
17284;DHT22;8760;52.248;20.952;2022-08-03T08:22:37;30.60;1.00
17284;DHT22;8760;52.248;20.952;2022-08-03T08:25:05;31.00;1.00
17284;DHT22;8760;52.248;20.952;2022-08-03T08:27:31;31.20;1.00
17284;DHT22;8760;52.248;20.952;2022-08-03T08:30:03;31.00;1.00
17284;DHT22;8760;52.248;20.952;2022-08-03T08:32:30;30.40;1.00
17284;DHT22;8760;52.248;20.952;2022-08-03T08:34:56;30.50;1.00
17284;DHT22;8760;52.248;20.952;2022-08-03T08:37:23;30.70;1.00
17284;DHT22;8760;52.248;20.952;2022-08-03T08:39:50;31.00;99.90
17284;DHT22;8760;52.248;20.952;2022-08-03T08:42:17;31.30;99.90
17284;DHT22;8760;52.248;20.952;2022-08-03T08:44:43;31.20;99.90
17284;DHT22;8760;52.248;20.952;2022-08-03T08:47:13;31.50;99.90
17284;DHT22;8760;52.248;20.952;2022-08-03T08:49:40;31.50;99.90
17284;DHT22;8760;52.248;20.952;2022-08-03T08:52:07;31.90;99.90
17284;DHT22;8760;52.248;20.952;2022-08-03T08:54:35;31.90;99.90
17284;DHT22;8760;52.248;20.952;2022-08-03T08:57:03;32.10;99.90
17284;DHT22;8760;52.248;20.952;2022-08-03T08:59:31;32.10;99.90
17284;DHT22;8760;52.248;20.952;2022-08-03T09:01:59;32.10;99.90
17284;DHT22;8760;52.248;20.952;2022-08-03T09:04:27;32.20;99.90
17284;DHT22;8760;52.248;20.952;2022-08-03T09:06:55;32.30;99.90
17284;DHT22;8760;52.248;20.952;2022-08-03T09:09:22;32.50;99.90
17284;DHT22;8760;52.248;20.952;2022-08-03T09:11:49;32.70;99.90
17284;DHT22;8760;52.248;20.952;2022-08-03T09:14:15;32.60;99.90
17284;DHT22;8760;52.248;20.952;2022-08-03T09:16:55;32.50;99.90
17284;DHT22;8760;52.248;20.952;2022-08-03T09:19:23;32.70;99.90
17284;DHT22;8760;52.248;20.952;2022-08-03T09:22:06;32.10;99.90
17284;DHT22;8760;52.248;20.952;2022-08-03T09:24:33;31.90;99.90
17284;DHT22;8760;52.248;20.952;2022-08-03T09:27:01;31.90;99.90
17284;DHT22;8760;52.248;20.952;2022-08-03T09:29:31;31.30;99.90
17284;DHT22;8760;52.248;20.952;2022-08-03T09:32:00;30.60;99.90
17284;DHT22;8760;52.248;20.952;2022-08-03T09:34:27;29.70;99.90
17284;DHT22;8760;52.248;20.952;2022-08-03T09:36:56;29.30;99.90
17284;DHT22;8760;52.248;20.952;2022-08-03T09:39:24;30.10;99.90
17284;DHT22;8760;52.248;20.952;2022-08-03T09:42:04;30.60;99.90
17284;DHT22;8760;52.248;20.952;2022-08-03T09:44:33;31.70;99.90
17284;DHT22;8760;52.248;20.952;2022-08-03T09:47:01;32.30;99.90
17284;DHT22;8760;52.248;20.952;2022-08-03T09:49:28;32.40;99.90
17284;DHT22;8760;52.248;20.952;2022-08-03T09:51:56;32.80;99.90
17284;DHT22;8760;52.248;20.952;2022-08-03T09:54:26;32.80;99.90
17284;DHT22;8760;52.248;20.952;2022-08-03T09:56:53;33.10;99.90
17284;DHT22;8760;52.248;20.952;2022-08-03T09:59:25;33.50;99.90
17284;DHT22;8760;52.248;20.952;2022-08-03T10:01:52;33.80;99.90
17284;DHT22;8760;52.248;20.952;2022-08-03T10:04:19;33.90;99.90
17284;DHT22;8760;52.248;20.952;2022-08-03T10:07:03;34.10;99.90
17284;DHT22;8760;52.248;20.952;2022-08-03T10:09:31;34.10;99.90
17284;DHT22;8760;52.248;20.952;2022-08-03T10:12:07;33.80;99.90
17284;DHT22;8760;52.248;20.952;2022-08-03T10:14:36;33.30;99.90
17284;DHT22;8760;52.248;20.952;2022-08-03T10:17:03;33.40;99.90
17284;DHT22;8760;52.248;20.952;2022-08-03T10:19:30;33.60;99.90
17284;DHT22;8760;52.248;20.952;2022-08-03T10:22:06;33.60;99.90
17284;DHT22;8760;52.248;20.952;2022-08-03T10:24:36;33.50;99.90
17284;DHT22;8760;52.248;20.952;2022-08-03T10:27:04;33.60;99.90
17284;DHT22;8760;52.248;20.952;2022-08-03T10:29:36;33.40;99.90
17284;DHT22;8760;52.248;20.952;2022-08-03T10:32:07;33.20;99.90
17284;DHT22;8760;52.248;20.952;2022-08-03T10:34:39;33.20;99.90
17284;DHT22;8760;52.248;20.952;2022-08-03T10:37:10;33.60;99.90
17284;DHT22;8760;52.248;20.952;2022-08-03T10:39:37;33.60;99.90
17284;DHT22;8760;52.248;20.952;2022-08-03T10:42:19;33.80;99.90
17284;DHT22;8760;52.248;20.952;2022-08-03T10:44:47;34.10;99.90
17284;DHT22;8760;52.248;20.952;2022-08-03T10:47:15;33.70;99.90
17284;DHT22;8760;52.248;20.952;2022-08-03T10:49:41;33.80;99.90
17284;DHT22;8760;52.248;20.952;2022-08-03T10:52:12;33.40;99.90
17284;DHT22;8760;52.248;20.952;2022-08-03T10:54:40;33.40;99.90
17284;DHT22;8760;52.248;20.952;2022-08-03T10:57:47;33.30;99.90
17284;DHT22;8760;52.248;20.952;2022-08-03T11:00:16;32.70;99.90
17284;DHT22;8760;52.248;20.952;2022-08-03T11:03:05;32.30;99.90
17284;DHT22;8760;52.248;20.952;2022-08-03T11:05:35;32.20;99.90
17284;DHT22;8760;52.248;20.952;2022-08-03T11:08:19;32.60;99.90
17284;DHT22;8760;52.248;20.952;2022-08-03T11:10:47;31.90;99.90
17284;DHT22;8760;52.248;20.952;2022-08-03T11:13:15;31.50;99.90
17284;DHT22;8760;52.248;20.952;2022-08-03T11:15:43;31.50;99.90
17284;DHT22;8760;52.248;20.952;2022-08-03T11:18:12;31.30;99.90
17284;DHT22;8760;52.248;20.952;2022-08-03T11:20:44;31.30;99.90
17284;DHT22;8760;52.248;20.952;2022-08-03T11:23:11;30.90;99.90
17284;DHT22;8760;52.248;20.952;2022-08-03T11:26:11;30.80;99.90
17284;DHT22;8760;52.248;20.952;2022-08-03T11:28:39;30.40;99.90
17284;DHT22;8760;52.248;20.952;2022-08-03T11:34:21;30.30;99.90
17284;DHT22;8760;52.248;20.952;2022-08-03T11:37:22;29.90;99.90
17284;DHT22;8760;52.248;20.952;2022-08-03T11:39:53;29.70;99.90
17284;DHT22;8760;52.248;20.952;2022-08-03T11:42:44;29.60;99.90
17284;DHT22;8760;52.248;20.952;2022-08-03T11:45:12;29.30;99.90
17284;DHT22;8760;52.248;20.952;2022-08-03T11:47:40;29.10;99.90
17284;DHT22;8760;52.248;20.952;2022-08-03T11:50:07;29.10;99.90
17284;DHT22;8760;52.248;20.952;2022-08-03T11:52:38;29.00;99.90
17284;DHT22;8760;52.248;20.952;2022-08-03T11:55:10;29.00;99.90
17284;DHT22;8760;52.248;20.952;2022-08-03T11:57:39;28.90;99.90
17284;DHT22;8760;52.248;20.952;2022-08-03T12:00:24;28.90;99.90
17284;DHT22;8760;52.248;20.952;2022-08-03T12:03:01;28.80;99.90
17284;DHT22;8760;52.248;20.952;2022-08-03T12:05:36;28.70;99.90
17284;DHT22;8760;52.248;20.952;2022-08-03T12:08:04;28.60;99.90
17284;DHT22;8760;52.248;20.952;2022-08-03T12:10:31;28.70;99.90
17284;DHT22;8760;52.248;20.952;2022-08-03T12:12:59;28.90;99.90
17284;DHT22;8760;52.248;20.952;2022-08-03T12:15:29;29.00;99.90
17284;DHT22;8760;52.248;20.952;2022-08-03T12:17:58;29.00;99.90
17284;DHT22;8760;52.248;20.952;2022-08-03T12:20:27;29.10;99.90
17284;DHT22;8760;52.248;20.952;2022-08-03T12:22:57;29.20;99.90
17284;DHT22;8760;52.248;20.952;2022-08-03T12:25:27;29.20;99.90
17284;DHT22;8760;52.248;20.952;2022-08-03T12:28:05;29.00;99.90
17284;DHT22;8760;52.248;20.952;2022-08-03T12:30:34;28.90;99.90
17284;DHT22;8760;52.248;20.952;2022-08-03T12:33:11;29.00;99.90
17284;DHT22;8760;52.248;20.952;2022-08-03T12:35:38;29.00;99.90
17284;DHT22;8760;52.248;20.952;2022-08-03T12:38:05;28.90;99.90
17284;DHT22;8760;52.248;20.952;2022-08-03T12:40:32;28.80;99.90
17284;DHT22;8760;52.248;20.952;2022-08-03T12:42:58;28.80;99.90
17284;DHT22;8760;52.248;20.952;2022-08-03T12:45:27;28.90;99.90
17284;DHT22;8760;52.248;20.952;2022-08-03T12:47:59;29.00;99.90
17284;DHT22;8760;52.248;20.952;2022-08-03T12:50:27;29.10;99.90
17284;DHT22;8760;52.248;20.952;2022-08-03T12:52:55;29.20;99.90
17284;DHT22;8760;52.248;20.952;2022-08-03T12:55:22;29.20;99.90
17284;DHT22;8760;52.248;20.952;2022-08-03T12:57:49;29.10;99.90
17284;DHT22;8760;52.248;20.952;2022-08-03T13:00:17;29.00;99.90
17284;DHT22;8760;52.248;20.952;2022-08-03T13:02:45;28.90;99.90
17284;DHT22;8760;52.248;20.952;2022-08-03T13:05:13;29.00;99.90
17284;DHT22;8760;52.248;20.952;2022-08-03T13:07:40;29.10;99.90
17284;DHT22;8760;52.248;20.952;2022-08-03T13:10:09;29.20;99.90
17284;DHT22;8760;52.248;20.952;2022-08-03T13:12:45;29.30;99.90
17284;DHT22;8760;52.248;20.952;2022-08-03T13:15:13;29.30;99.90
17284;DHT22;8760;52.248;20.952;2022-08-03T13:17:40;29.30;99.90
17284;DHT22;8760;52.248;20.952;2022-08-03T13:20:08;29.30;99.90
17284;DHT22;8760;52.248;20.952;2022-08-03T13:22:36;29.30;99.90
17284;DHT22;8760;52.248;20.952;2022-08-03T13:25:03;29.30;99.90
17284;DHT22;8760;52.248;20.952;2022-08-03T13:27:30;29.50;99.90
17284;DHT22;8760;52.248;20.952;2022-08-03T13:29:57;29.60;99.90
17284;DHT22;8760;52.248;20.952;2022-08-03T13:32:24;29.80;99.90
17284;DHT22;8760;52.248;20.952;2022-08-03T13:34:51;29.90;99.90
17284;DHT22;8760;52.248;20.952;2022-08-03T13:37:18;29.90;99.90
17284;DHT22;8760;52.248;20.952;2022-08-03T13:39:46;29.90;99.90
17284;DHT22;8760;52.248;20.952;2022-08-03T13:42:13;29.70;99.90
17284;DHT22;8760;52.248;20.952;2022-08-03T13:44:40;29.70;99.90
17284;DHT22;8760;52.248;20.952;2022-08-03T13:47:06;29.60;99.90
17284;DHT22;8760;52.248;20.952;2022-08-03T13:49:33;29.50;99.90
17284;DHT22;8760;52.248;20.952;2022-08-03T13:52:00;29.50;99.90
17284;DHT22;8760;52.248;20.952;2022-08-03T13:54:27;29.50;99.90
17284;DHT22;8760;52.248;20.952;2022-08-03T13:56:55;29.40;99.90
17284;DHT22;8760;52.248;20.952;2022-08-03T13:59:23;29.20;99.90
17284;DHT22;8760;52.248;20.952;2022-08-03T14:01:51;29.10;99.90
17284;DHT22;8760;52.248;20.952;2022-08-03T14:04:18;29.10;99.90
17284;DHT22;8760;52.248;20.952;2022-08-03T14:06:45;29.00;99.90
17284;DHT22;8760;52.248;20.952;2022-08-03T14:09:13;29.10;99.90
17284;DHT22;8760;52.248;20.952;2022-08-03T14:11:40;29.10;99.90
17284;DHT22;8760;52.248;20.952;2022-08-03T14:14:09;29.10;99.90
17284;DHT22;8760;52.248;20.952;2022-08-03T14:16:36;29.00;99.90
17284;DHT22;8760;52.248;20.952;2022-08-03T14:19:03;29.10;99.90
17284;DHT22;8760;52.248;20.952;2022-08-03T14:21:29;29.10;99.90
17284;DHT22;8760;52.248;20.952;2022-08-03T14:23:56;29.10;99.90
17284;DHT22;8760;52.248;20.952;2022-08-03T14:26:23;29.20;99.90
17284;DHT22;8760;52.248;20.952;2022-08-03T14:28:50;29.20;99.90
17284;DHT22;8760;52.248;20.952;2022-08-03T14:31:18;29.20;99.90
17284;DHT22;8760;52.248;20.952;2022-08-03T14:33:45;29.10;99.90
17284;DHT22;8760;52.248;20.952;2022-08-03T14:36:12;29.20;99.90
17284;DHT22;8760;52.248;20.952;2022-08-03T14:38:38;29.20;99.90
17284;DHT22;8760;52.248;20.952;2022-08-03T14:41:05;29.20;99.90
17284;DHT22;8760;52.248;20.952;2022-08-03T14:43:32;29.20;99.90
17284;DHT22;8760;52.248;20.952;2022-08-03T14:45:58;29.20;99.90
17284;DHT22;8760;52.248;20.952;2022-08-03T14:48:26;29.20;99.90
17284;DHT22;8760;52.248;20.952;2022-08-03T14:50:53;29.20;99.90
17284;DHT22;8760;52.248;20.952;2022-08-03T14:53:21;29.10;99.90
17284;DHT22;8760;52.248;20.952;2022-08-03T14:55:48;29.20;99.90
17284;DHT22;8760;52.248;20.952;2022-08-03T14:58:15;29.20;99.90
17284;DHT22;8760;52.248;20.952;2022-08-03T15:00:42;29.10;99.90
17284;DHT22;8760;52.248;20.952;2022-08-03T15:03:08;29.10;99.90
17284;DHT22;8760;52.248;20.952;2022-08-03T15:05:36;29.20;99.90
17284;DHT22;8760;52.248;20.952;2022-08-03T15:08:04;29.20;99.90
17284;DHT22;8760;52.248;20.952;2022-08-03T15:10:30;29.30;99.90
17284;DHT22;8760;52.248;20.952;2022-08-03T15:12:57;29.50;99.90
17284;DHT22;8760;52.248;20.952;2022-08-03T15:15:24;29.60;99.90
17284;DHT22;8760;52.248;20.952;2022-08-03T15:17:51;29.60;99.90
17284;DHT22;8760;52.248;20.952;2022-08-03T15:20:18;29.60;99.90
17284;DHT22;8760;52.248;20.952;2022-08-03T15:22:46;29.60;99.90
17284;DHT22;8760;52.248;20.952;2022-08-03T15:25:13;29.50;99.90
17284;DHT22;8760;52.248;20.952;2022-08-03T15:27:39;29.50;99.90
17284;DHT22;8760;52.248;20.952;2022-08-03T15:30:07;29.60;99.90
17284;DHT22;8760;52.248;20.952;2022-08-03T15:32:35;29.60;99.90
17284;DHT22;8760;52.248;20.952;2022-08-03T15:35:02;29.60;99.90
17284;DHT22;8760;52.248;20.952;2022-08-03T15:37:28;29.60;99.90
17284;DHT22;8760;52.248;20.952;2022-08-03T15:39:57;29.40;99.90
17284;DHT22;8760;52.248;20.952;2022-08-03T15:42:23;29.40;99.90
17284;DHT22;8760;52.248;20.952;2022-08-03T15:44:50;29.30;99.90
17284;DHT22;8760;52.248;20.952;2022-08-03T15:47:17;29.40;99.90